createdAt,value
2023-04-08T00:02:27.896Z,11.71
2023-04-08T00:04:56.131Z,11.72
2023-04-08T00:07:24.028Z,11.46
2023-04-08T00:09:51.890Z,11.53
2023-04-08T00:12:19.749Z,11.52
2023-04-08T00:14:47.614Z,11.51
2023-04-08T00:17:15.616Z,11.56
2023-04-08T00:19:45.092Z,11.49
2023-04-08T00:22:12.942Z,11.59
2023-04-08T00:24:40.886Z,11.43
2023-04-08T00:27:08.690Z,11.41
2023-04-08T00:29:36.546Z,11.29
2023-04-08T00:32:05.111Z,11.26
2023-04-08T00:34:33.023Z,11.25
2023-04-08T00:37:02.520Z,11.27
2023-04-08T00:39:30.665Z,11.40
2023-04-08T00:41:58.604Z,11.41
2023-04-08T00:44:26.375Z,11.53
2023-04-08T00:46:54.232Z,11.50
2023-04-08T00:49:22.097Z,11.51
2023-04-08T00:51:49.866Z,11.53
2023-04-08T00:54:18.935Z,11.56
2023-04-08T00:56:46.836Z,11.57
2023-04-08T00:59:15.374Z,11.62
2023-04-08T01:01:49.073Z,11.61
2023-04-08T01:04:24.448Z,11.61
2023-04-08T01:06:58.415Z,11.53
2023-04-08T01:09:33.429Z,11.56
2023-04-08T01:12:05.231Z,11.48
2023-04-08T01:14:36.272Z,11.53
2023-04-08T01:17:05.715Z,11.52
2023-04-08T01:19:38.653Z,11.50
2023-04-08T01:22:17.518Z,11.47
2023-04-08T01:24:48.784Z,11.39
2023-04-08T01:27:20.173Z,11.52
2023-04-08T01:29:50.093Z,11.45
2023-04-08T01:32:18.631Z,11.39
2023-04-08T01:34:47.014Z,11.39
2023-04-08T01:37:16.430Z,11.38
2023-04-08T01:39:45.121Z,11.34
2023-04-08T01:42:14.868Z,11.35
2023-04-08T01:44:47.287Z,11.33
2023-04-08T01:47:16.988Z,11.32
2023-04-08T01:49:46.104Z,11.38
2023-04-08T01:52:16.033Z,11.38
2023-04-08T01:54:46.011Z,11.36
2023-04-08T01:57:18.715Z,11.30
2023-04-08T01:59:51.669Z,11.27
2023-04-08T02:02:21.120Z,11.24
2023-04-08T02:04:49.656Z,11.14
2023-04-08T02:07:18.872Z,11.14
2023-04-08T02:09:46.589Z,11.18
2023-04-08T02:12:14.725Z,11.11
2023-04-08T02:14:42.663Z,11.13
2023-04-08T02:17:14.500Z,11.13
2023-04-08T02:19:47.836Z,11.08
2023-04-08T02:22:24.327Z,11.07
2023-04-08T02:24:53.150Z,11.13
2023-04-08T02:27:22.035Z,11.13
2023-04-08T02:29:52.042Z,10.90
2023-04-08T02:32:24.890Z,10.80
2023-04-08T02:34:53.642Z,10.87
2023-04-08T02:37:21.526Z,10.89
2023-04-08T02:39:49.263Z,11.04
2023-04-08T02:42:17.149Z,11.07
2023-04-08T02:44:46.188Z,10.95
2023-04-08T02:47:14.089Z,10.91
2023-04-08T02:49:43.233Z,10.85
2023-04-08T02:52:11.067Z,10.79
2023-04-08T02:54:38.905Z,10.85
2023-04-08T02:57:06.707Z,10.88
2023-04-08T02:59:37.858Z,10.84
2023-04-08T03:02:05.658Z,10.80
2023-04-08T03:04:33.444Z,10.78
2023-04-08T03:07:02.693Z,10.80
2023-04-08T03:09:30.498Z,10.75
2023-04-08T03:11:58.276Z,10.72
2023-04-08T03:14:26.188Z,10.60
2023-04-08T03:16:54.018Z,10.67
2023-04-08T03:19:21.863Z,10.66
2023-04-08T03:21:49.733Z,10.71
2023-04-08T03:24:18.815Z,10.69
2023-04-08T03:26:46.776Z,10.66
2023-04-08T03:29:14.767Z,10.57
2023-04-08T03:31:42.697Z,10.57
2023-04-08T03:34:10.586Z,10.55
2023-04-08T03:36:38.369Z,10.55
2023-04-08T03:39:06.465Z,10.46
2023-04-08T03:41:35.865Z,10.45
2023-04-08T03:44:03.941Z,10.47
2023-04-08T03:46:31.810Z,10.53
2023-04-08T03:48:59.644Z,10.55
2023-04-08T03:51:28.574Z,10.56
2023-04-08T03:53:56.541Z,10.58
2023-04-08T03:56:25.122Z,10.57
2023-04-08T03:58:54.458Z,10.52
2023-04-08T04:01:22.312Z,10.53
2023-04-08T04:03:50.375Z,10.57
2023-04-08T04:06:18.408Z,10.60
2023-04-08T04:08:46.512Z,10.57
2023-04-08T04:11:14.343Z,10.57
2023-04-08T04:13:42.410Z,10.60
2023-04-08T04:16:11.754Z,10.48
2023-04-08T04:18:39.601Z,10.56
2023-04-08T04:21:08.069Z,10.57
2023-04-08T04:23:36.011Z,10.50
2023-04-08T04:26:08.782Z,10.58
2023-04-08T04:28:36.606Z,10.51
2023-04-08T04:31:05.184Z,10.50
2023-04-08T04:33:34.336Z,10.44
2023-04-08T04:36:02.111Z,10.25
2023-04-08T04:38:29.973Z,10.40
2023-04-08T04:40:58.998Z,10.38
2023-04-08T04:43:26.826Z,10.40
2023-04-08T04:45:54.622Z,10.48
2023-04-08T04:48:23.188Z,10.38
2023-04-08T04:50:57.574Z,10.48
2023-04-08T04:53:25.964Z,10.46
2023-04-08T04:55:54.429Z,10.44
2023-04-08T04:58:22.462Z,10.45
2023-04-08T05:00:50.573Z,10.41
2023-04-08T05:03:18.680Z,10.35
2023-04-08T05:05:46.697Z,10.40
2023-04-08T05:08:16.311Z,10.40
2023-04-08T05:10:44.028Z,10.42
2023-04-08T05:13:11.800Z,10.44
2023-04-08T05:15:40.019Z,10.43
2023-04-08T05:18:08.282Z,10.45
2023-04-08T05:20:36.692Z,10.43
2023-04-08T05:23:04.702Z,10.36
2023-04-08T05:25:34.303Z,10.29
2023-04-08T05:28:02.341Z,10.40
2023-04-08T05:30:30.587Z,10.39
2023-04-08T05:33:00.312Z,10.44
2023-04-08T05:35:28.720Z,10.45
2023-04-08T05:37:56.808Z,10.49
2023-04-08T05:40:24.852Z,10.56
2023-04-08T05:42:54.010Z,10.52
2023-04-08T05:45:22.014Z,10.58
2023-04-08T05:47:49.958Z,10.55
2023-04-08T05:50:18.119Z,10.42
2023-04-08T05:52:46.174Z,10.61
2023-04-08T05:55:15.684Z,10.62
2023-04-08T05:57:43.606Z,10.64
2023-04-08T06:00:13.628Z,10.70
2023-04-08T06:02:41.679Z,10.80
2023-04-08T06:05:10.749Z,10.88
2023-04-08T06:07:38.516Z,10.93
2023-04-08T06:10:07.297Z,10.92
2023-04-08T06:12:37.150Z,10.92
2023-04-08T06:15:05.572Z,10.92
2023-04-08T06:17:37.378Z,10.91
2023-04-08T06:20:07.212Z,10.95
2023-04-08T06:22:35.056Z,11.00
2023-04-08T06:25:03.231Z,10.96
2023-04-08T06:27:31.138Z,10.88
2023-04-08T06:29:59.216Z,10.93
2023-04-08T06:32:27.007Z,11.03
2023-04-08T06:34:56.947Z,11.04
2023-04-08T06:37:25.227Z,11.02
2023-04-08T06:39:53.049Z,11.14
2023-04-08T06:42:22.590Z,11.13
2023-04-08T06:45:09.846Z,11.20
2023-04-08T06:47:37.815Z,11.22
2023-04-08T06:50:08.185Z,11.24
2023-04-08T06:52:36.136Z,11.26
2023-04-08T06:55:04.470Z,11.24
2023-04-08T06:57:32.959Z,11.25
2023-04-08T07:00:01.181Z,11.30
2023-04-08T07:02:29.292Z,11.22
2023-04-08T07:04:57.935Z,11.20
2023-04-08T07:07:27.239Z,11.29
2023-04-08T07:09:55.009Z,11.39
2023-04-08T07:12:22.907Z,11.39
2023-04-08T07:14:50.713Z,11.43
2023-04-08T07:17:18.453Z,11.39
2023-04-08T07:19:47.180Z,11.25
2023-04-08T07:22:16.171Z,11.27
2023-04-08T07:24:49.853Z,11.30
2023-04-08T07:27:17.714Z,11.29
2023-04-08T07:29:45.862Z,11.36
2023-04-08T07:32:13.658Z,11.35
2023-04-08T07:34:42.047Z,11.38
2023-04-08T07:37:10.122Z,11.24
2023-04-08T07:39:37.825Z,11.27
2023-04-08T07:42:07.040Z,11.15
2023-04-08T07:44:35.116Z,11.22
2023-04-08T07:47:03.253Z,11.25
2023-04-08T07:49:31.858Z,11.30
2023-04-08T07:52:00.815Z,11.35
2023-04-08T07:54:29.492Z,11.32
2023-04-08T07:56:59.933Z,11.29
2023-04-08T07:59:30.315Z,11.23
2023-04-08T08:01:58.982Z,11.22
2023-04-08T08:04:27.685Z,11.04
2023-04-08T08:06:55.803Z,11.05
2023-04-08T08:09:24.117Z,11.09
2023-04-08T08:11:53.345Z,11.11
2023-04-08T08:14:22.012Z,11.19
2023-04-08T08:16:53.379Z,11.24
2023-04-08T08:19:22.555Z,11.35
2023-04-08T08:21:52.446Z,11.36
2023-04-08T08:24:20.731Z,11.41
2023-04-08T08:26:49.999Z,11.40
2023-04-08T08:29:18.621Z,11.28
2023-04-08T08:31:48.988Z,11.28
2023-04-08T08:34:19.881Z,11.27
2023-04-08T08:36:48.547Z,11.40
2023-04-08T08:39:17.989Z,11.40
2023-04-08T08:41:47.236Z,11.43
2023-04-08T08:44:16.167Z,11.36
2023-04-08T08:46:46.239Z,11.35
2023-04-08T08:49:17.035Z,11.44
2023-04-08T08:51:48.274Z,11.51
2023-04-08T08:54:17.464Z,11.46
2023-04-08T08:56:47.037Z,11.43
2023-04-08T08:59:15.447Z,11.53
2023-04-08T09:01:45.041Z,11.53
2023-04-08T09:04:17.315Z,11.58
2023-04-08T09:06:49.540Z,11.58
2023-04-08T09:09:19.552Z,11.63
2023-04-08T09:11:48.979Z,11.65
2023-04-08T09:14:24.471Z,11.65
2023-04-08T09:16:55.310Z,11.36
2023-04-08T09:19:23.916Z,11.28
2023-04-08T09:22:08.153Z,11.39
2023-04-08T09:24:38.506Z,11.40
2023-04-08T09:27:07.032Z,11.40
2023-04-08T09:29:38.289Z,11.50
2023-04-08T09:32:07.997Z,11.47
2023-04-08T09:34:36.727Z,11.50
2023-04-08T09:37:05.541Z,11.55
2023-04-08T09:39:33.851Z,11.62
2023-04-08T09:42:12.846Z,11.67
2023-04-08T09:44:43.722Z,11.70
2023-04-08T09:47:27.988Z,11.80
2023-04-08T09:49:59.587Z,11.85
2023-04-08T09:52:35.642Z,11.77
2023-04-08T09:55:05.544Z,11.72
2023-04-08T09:57:42.530Z,11.85
2023-04-08T10:00:15.305Z,11.93
2023-04-08T10:02:54.292Z,11.97
2023-04-08T10:05:24.547Z,11.97
2023-04-08T10:07:52.874Z,12.09
2023-04-08T10:10:21.917Z,12.15
2023-04-08T10:12:51.698Z,12.14
2023-04-08T10:15:27.971Z,12.17
2023-04-08T10:17:56.979Z,12.09
2023-04-08T10:20:45.799Z,12.18
2023-04-08T10:23:15.354Z,12.15
2023-04-08T10:25:45.214Z,12.20
2023-04-08T10:28:27.178Z,12.24
2023-04-08T10:30:56.654Z,12.24
2023-04-08T10:33:32.724Z,12.28
2023-04-08T10:36:02.935Z,12.33
2023-04-08T10:38:30.993Z,12.34
2023-04-08T10:40:58.637Z,12.34
2023-04-08T10:43:28.197Z,12.39
2023-04-08T10:45:56.431Z,12.44
2023-04-08T10:48:25.601Z,12.52
2023-04-08T10:50:54.069Z,12.49
2023-04-08T10:53:27.026Z,12.55
2023-04-08T10:55:54.968Z,12.54
2023-04-08T10:58:23.008Z,12.59
2023-04-08T11:00:52.675Z,12.59
2023-04-08T11:03:20.831Z,12.58
2023-04-08T11:05:51.608Z,12.56
2023-04-08T11:08:20.903Z,12.51
2023-04-08T11:10:49.769Z,12.38
2023-04-08T11:13:18.834Z,12.30
2023-04-08T11:15:46.759Z,12.31
2023-04-08T11:18:16.693Z,12.17
2023-04-08T11:20:45.050Z,12.19
2023-04-08T11:23:14.852Z,12.27
2023-04-08T11:25:44.656Z,12.33
2023-04-08T11:28:13.051Z,12.40
2023-04-08T11:30:42.192Z,12.45
2023-04-08T11:33:10.305Z,12.50
2023-04-08T11:35:43.444Z,12.60
2023-04-08T11:38:12.553Z,12.67
2023-04-08T11:40:40.290Z,12.71
2023-04-08T11:43:11.774Z,12.80
2023-04-08T11:45:40.316Z,12.84
2023-04-08T11:48:11.812Z,12.89
2023-04-08T11:50:40.484Z,12.89
2023-04-08T11:53:20.537Z,12.92
2023-04-08T11:55:49.768Z,12.88
2023-04-08T11:58:18.083Z,12.86
2023-04-08T12:00:46.807Z,12.81
2023-04-08T12:03:14.920Z,12.82
2023-04-08T12:05:44.076Z,12.65
2023-04-08T12:08:12.202Z,12.71
2023-04-08T12:10:41.839Z,12.63
2023-04-08T12:13:09.521Z,12.64
2023-04-08T12:15:37.843Z,12.64
2023-04-08T12:18:06.329Z,12.62
2023-04-08T12:20:34.497Z,12.74
2023-04-08T12:23:02.544Z,12.78
2023-04-08T12:25:31.404Z,12.88
2023-04-08T12:28:01.080Z,12.85
2023-04-08T12:30:29.458Z,12.89
2023-04-08T12:32:58.037Z,12.80
2023-04-08T12:35:26.398Z,12.85
2023-04-08T12:37:55.568Z,12.91
2023-04-08T12:40:23.461Z,12.97
2023-04-08T12:42:51.291Z,13.05
2023-04-08T12:45:20.670Z,13.02
2023-04-08T12:47:48.586Z,13.09
2023-04-08T12:50:17.141Z,13.12
2023-04-08T12:52:44.976Z,13.16
2023-04-08T12:55:12.953Z,13.23
2023-04-08T12:57:41.083Z,13.29
2023-04-08T13:00:11.496Z,13.29
2023-04-08T13:02:42.240Z,13.33
2023-04-08T13:05:10.711Z,13.33
2023-04-08T13:07:38.593Z,13.41
2023-04-08T13:10:07.973Z,13.40
2023-04-08T13:12:36.045Z,13.44
2023-04-08T13:15:05.241Z,13.52
2023-04-08T13:17:33.693Z,13.53
2023-04-08T13:20:03.852Z,13.56
2023-04-08T13:22:33.692Z,13.57
2023-04-08T13:25:02.122Z,13.50
2023-04-08T13:27:30.421Z,13.58
2023-04-08T13:29:58.263Z,13.54
2023-04-08T13:32:26.400Z,13.59
2023-04-08T13:34:54.580Z,13.58
2023-04-08T13:37:23.890Z,13.69
2023-04-08T13:39:51.779Z,13.78
2023-04-08T13:42:19.394Z,13.88
2023-04-08T13:44:46.948Z,13.94
2023-04-08T13:47:14.726Z,13.96
2023-04-08T13:49:42.404Z,14.05
2023-04-08T13:52:10.230Z,14.04
2023-04-08T13:54:39.339Z,14.11
2023-04-08T13:57:08.075Z,14.09
2023-04-08T13:59:35.823Z,14.21
2023-04-08T14:02:04.718Z,14.24
2023-04-08T14:04:33.600Z,14.38
2023-04-08T14:07:01.433Z,14.57
2023-04-08T14:09:29.593Z,14.67
2023-04-08T14:11:59.078Z,14.73
2023-04-08T14:14:26.802Z,14.69
2023-04-08T14:16:55.090Z,14.73
2023-04-08T14:19:23.170Z,14.80
2023-04-08T14:21:51.308Z,14.88
2023-04-08T14:24:19.267Z,14.84
2023-04-08T14:26:47.424Z,14.84
2023-04-08T14:29:16.727Z,14.85
2023-04-08T14:31:44.506Z,14.85
2023-04-08T14:34:12.321Z,14.90
2023-04-08T14:36:40.467Z,15.15
2023-04-08T14:39:08.368Z,15.30
2023-04-08T14:41:36.216Z,15.33
2023-04-08T14:44:05.550Z,15.31
2023-04-08T14:46:34.850Z,15.39
2023-04-08T14:49:02.673Z,15.51
2023-04-08T14:51:31.836Z,15.71
2023-04-08T14:53:59.805Z,15.83
2023-04-08T14:56:27.653Z,15.83
2023-04-08T14:58:55.729Z,15.91
2023-04-08T15:01:24.065Z,15.93
2023-04-08T15:03:53.388Z,15.96
2023-04-08T15:06:21.752Z,16.11
2023-04-08T15:08:49.936Z,16.17
2023-04-08T15:11:19.593Z,16.20
2023-04-08T15:13:47.408Z,16.29
2023-04-08T15:16:15.747Z,16.33
2023-04-08T15:18:43.588Z,16.42
2023-04-08T15:21:12.736Z,16.47
2023-04-08T15:23:42.017Z,16.59
2023-04-08T15:26:11.420Z,16.70
2023-04-08T15:28:40.497Z,16.73
2023-04-08T15:31:08.879Z,16.73
2023-04-08T15:33:41.235Z,16.63
2023-04-08T15:36:09.061Z,16.67
2023-04-08T15:38:39.956Z,16.72
2023-04-08T15:41:07.747Z,16.81
2023-04-08T15:43:35.932Z,16.85
2023-04-08T15:46:04.442Z,16.98
2023-04-08T15:48:32.727Z,17.02
2023-04-08T15:51:00.447Z,17.01
2023-04-08T15:53:28.419Z,16.97
2023-04-08T15:55:57.965Z,16.97
2023-04-08T15:58:25.936Z,16.97
2023-04-08T16:00:55.763Z,16.92
2023-04-08T16:03:23.748Z,16.87
2023-04-08T16:05:52.124Z,16.90
2023-04-08T16:08:20.175Z,16.95
2023-04-08T16:10:48.065Z,16.98
2023-04-08T16:13:17.410Z,16.99
2023-04-08T16:15:45.631Z,17.00
2023-04-08T16:18:13.903Z,16.93
2023-04-08T16:20:41.966Z,16.87
2023-04-08T16:23:10.230Z,16.79
2023-04-08T16:25:38.117Z,16.69
2023-04-08T16:28:06.502Z,16.58
2023-04-08T16:30:37.555Z,16.43
2023-04-08T16:33:06.092Z,16.33
2023-04-08T16:35:34.114Z,16.21
2023-04-08T16:38:01.854Z,16.20
2023-04-08T16:40:33.026Z,16.16
2023-04-08T16:43:01.080Z,16.11
2023-04-08T16:45:30.496Z,16.04
2023-04-08T16:48:00.636Z,16.01
2023-04-08T16:50:28.965Z,15.99
2023-04-08T16:52:57.112Z,15.93
2023-04-08T16:55:24.958Z,15.88
2023-04-08T16:57:52.916Z,15.86
2023-04-08T17:00:22.425Z,15.81
2023-04-08T17:02:50.657Z,15.71
2023-04-08T17:05:20.361Z,15.63
2023-04-08T17:07:48.112Z,15.64
2023-04-08T17:10:16.402Z,15.62
2023-04-08T17:12:44.243Z,15.61
2023-04-08T17:15:12.640Z,15.59
2023-04-08T17:17:40.447Z,15.56
2023-04-08T17:20:09.259Z,15.52
2023-04-08T17:22:38.446Z,15.44
2023-04-08T17:25:07.442Z,15.41
2023-04-08T17:27:35.473Z,15.37
2023-04-08T17:30:03.660Z,15.34
2023-04-08T17:32:32.183Z,15.28
2023-04-08T17:35:00.087Z,15.17
2023-04-08T17:37:28.040Z,15.12
2023-04-08T17:39:57.403Z,15.01
2023-04-08T17:42:25.107Z,14.98
2023-04-08T17:44:53.008Z,14.95
2023-04-08T17:47:21.117Z,14.96
2023-04-08T17:49:48.863Z,14.93
2023-04-08T17:52:16.570Z,14.92
2023-04-08T17:54:44.253Z,14.93
2023-04-08T17:57:14.276Z,14.88
2023-04-08T17:59:42.053Z,14.88
2023-04-08T18:02:10.038Z,14.85
2023-04-08T18:04:38.236Z,14.87
2023-04-08T18:07:06.168Z,14.92
2023-04-08T18:09:34.085Z,14.88
2023-04-08T18:12:01.911Z,14.87
2023-04-08T18:14:31.373Z,14.81
2023-04-08T18:16:59.208Z,14.72
2023-04-08T18:19:27.047Z,14.70
2023-04-08T18:21:55.466Z,14.72
2023-04-08T18:24:23.268Z,14.70
2023-04-08T18:26:57.948Z,14.68
2023-04-08T18:29:32.879Z,14.66
2023-04-08T18:32:00.852Z,14.66
2023-04-08T18:34:28.747Z,14.64
2023-04-08T18:36:56.799Z,14.58
2023-04-08T18:39:24.541Z,14.60
2023-04-08T18:41:52.241Z,14.64
2023-04-08T18:44:20.174Z,14.62
2023-04-08T18:46:49.418Z,14.58
2023-04-08T18:49:17.150Z,14.57
2023-04-08T18:51:59.143Z,14.55
2023-04-08T18:54:30.689Z,14.53
2023-04-08T18:56:58.689Z,14.48
2023-04-08T18:59:28.320Z,14.52
2023-04-08T19:01:58.016Z,14.48
2023-04-08T19:04:26.311Z,14.45
2023-04-08T19:06:54.407Z,14.48
2023-04-08T19:09:22.331Z,14.47
2023-04-08T19:11:50.196Z,14.46
2023-04-08T19:14:18.364Z,14.46
2023-04-08T19:16:46.151Z,14.48
2023-04-08T19:19:16.193Z,14.51
2023-04-08T19:21:44.395Z,14.54
2023-04-08T19:24:12.091Z,14.57
2023-04-08T19:26:39.876Z,14.56
2023-04-08T19:29:09.325Z,14.57
2023-04-08T19:31:37.776Z,14.57
2023-04-08T19:34:05.766Z,14.59
2023-04-08T19:36:34.943Z,14.59
2023-04-08T19:39:03.622Z,14.57
2023-04-08T19:41:31.617Z,14.57
2023-04-08T19:43:59.411Z,14.56
2023-04-08T19:46:29.198Z,14.54
2023-04-08T19:48:58.973Z,14.58
2023-04-08T19:51:27.446Z,14.59
2023-04-08T19:53:56.665Z,14.58
2023-04-08T19:56:24.473Z,14.61
2023-04-08T19:58:52.768Z,14.63
2023-04-08T20:01:21.236Z,14.64
2023-04-08T20:03:50.388Z,14.65
2023-04-08T20:06:18.619Z,14.63
2023-04-08T20:08:46.783Z,14.62
2023-04-08T20:11:16.005Z,14.61
2023-04-08T20:13:43.964Z,14.64
2023-04-08T20:16:11.941Z,14.65
2023-04-08T20:18:39.797Z,14.66
2023-04-08T20:21:10.121Z,14.62
2023-04-08T20:23:40.460Z,14.63
2023-04-08T20:26:08.544Z,14.63
2023-04-08T20:28:37.709Z,14.63
2023-04-08T20:31:05.767Z,14.65
2023-04-08T20:33:33.627Z,14.65
2023-04-08T20:36:01.635Z,14.63
2023-04-08T20:38:29.423Z,14.64
2023-04-08T20:40:57.388Z,14.67
2023-04-08T20:43:25.236Z,14.66
2023-04-08T20:45:54.571Z,14.62
2023-04-08T20:48:22.428Z,14.61
2023-04-08T20:50:50.703Z,14.61
2023-04-08T20:53:19.564Z,14.63
2023-04-08T20:55:47.434Z,14.62
2023-04-08T20:58:15.277Z,14.62
2023-04-08T21:00:43.050Z,14.61
2023-04-08T21:03:13.007Z,14.63
2023-04-08T21:05:41.156Z,14.61
2023-04-08T21:08:08.948Z,14.62
2023-04-08T21:10:36.761Z,14.61
2023-04-08T21:13:04.587Z,14.62
2023-04-08T21:15:32.626Z,14.65
2023-04-08T21:18:00.415Z,14.65
2023-04-08T21:20:29.903Z,14.62
2023-04-08T21:22:59.160Z,14.68
2023-04-08T21:25:27.509Z,14.65
2023-04-08T21:27:55.559Z,14.64
2023-04-08T21:30:24.083Z,14.62
2023-04-08T21:32:52.581Z,14.58
2023-04-08T21:35:20.613Z,14.61
2023-04-08T21:37:49.852Z,14.60
2023-04-08T21:40:18.160Z,14.61
2023-04-08T21:42:46.568Z,14.61
2023-04-08T21:45:15.400Z,14.63
2023-04-08T21:47:43.261Z,14.64
2023-04-08T21:50:11.861Z,14.62
2023-04-08T21:52:41.590Z,14.60
2023-04-08T21:55:12.460Z,14.60
2023-04-08T21:57:41.484Z,14.59
2023-04-08T22:00:13.390Z,14.61
2023-04-08T22:02:45.273Z,14.52
2023-04-08T22:05:13.496Z,14.49
2023-04-08T22:07:41.608Z,14.51
2023-04-08T22:10:10.271Z,14.51
2023-04-08T22:12:39.543Z,14.53
2023-04-08T22:15:09.439Z,14.53
2023-04-08T22:17:37.582Z,14.59
2023-04-08T22:20:06.321Z,14.56
2023-04-08T22:22:34.450Z,14.58
2023-04-08T22:25:02.365Z,14.54
2023-04-08T22:27:30.339Z,14.51
2023-04-08T22:29:59.597Z,14.47
2023-04-08T22:32:27.462Z,14.49
2023-04-08T22:34:55.625Z,14.46
2023-04-08T22:37:23.411Z,14.37
2023-04-08T22:39:51.151Z,14.42
2023-04-08T22:42:18.900Z,14.40
2023-04-08T22:44:46.814Z,14.33
2023-04-08T22:47:16.081Z,14.30
2023-04-08T22:49:43.944Z,14.31
2023-04-08T22:52:11.828Z,14.25
2023-04-08T22:54:39.644Z,14.23
2023-04-08T22:57:07.547Z,14.06
2023-04-08T22:59:35.776Z,14.06
2023-04-08T23:02:03.689Z,14.06
2023-04-08T23:04:32.883Z,13.90
2023-04-08T23:07:00.781Z,13.93
2023-04-08T23:09:28.646Z,13.89
2023-04-08T23:11:57.403Z,13.91
2023-04-08T23:14:25.309Z,13.78
2023-04-08T23:16:53.168Z,13.69
2023-04-08T23:19:21.111Z,13.73
2023-04-08T23:21:50.377Z,13.69
2023-04-08T23:24:18.137Z,13.69
2023-04-08T23:26:46.305Z,13.70
2023-04-08T23:29:14.045Z,13.74
2023-04-08T23:31:41.866Z,13.74
2023-04-08T23:34:09.737Z,13.76
2023-04-08T23:36:37.619Z,13.59
2023-04-08T23:39:06.948Z,13.58
2023-04-08T23:41:34.863Z,13.55
2023-04-08T23:44:02.677Z,13.62
2023-04-08T23:46:30.646Z,13.65
2023-04-08T23:48:58.394Z,13.61
2023-04-08T23:51:26.652Z,13.58
2023-04-08T23:53:54.508Z,13.55
2023-04-08T23:56:23.861Z,13.65
2023-04-08T23:58:51.956Z,13.52
